createdAt,value
2016-07-03T00:00:28.514Z,967.15
2016-07-03T00:01:28.529Z,967.18
2016-07-03T00:02:28.543Z,967.17
2016-07-03T00:03:28.550Z,967.21
2016-07-03T00:04:28.556Z,967.2
2016-07-03T00:05:28.570Z,967.21
2016-07-03T00:06:28.580Z,967.2
2016-07-03T00:07:28.582Z,967.21
2016-07-03T00:08:28.590Z,967.23
2016-07-03T00:09:28.599Z,967.23
2016-07-03T00:10:28.612Z,967.23
2016-07-03T00:11:28.625Z,967.22
2016-07-03T00:12:28.631Z,967.24
2016-07-03T00:13:28.634Z,967.25
2016-07-03T00:14:28.650Z,967.23
2016-07-03T00:15:28.653Z,967.22
2016-07-03T00:16:28.661Z,967.19
2016-07-03T00:17:28.676Z,967.18
2016-07-03T00:18:28.679Z,967.19
2016-07-03T00:19:28.684Z,967.17
2016-07-03T00:20:28.696Z,967.21
2016-07-03T00:21:28.711Z,967.21
2016-07-03T00:22:28.718Z,967.24
2016-07-03T00:23:28.732Z,967.24
2016-07-03T00:24:28.741Z,967.25
2016-07-03T00:25:28.741Z,967.23
2016-07-03T00:26:28.751Z,967.24
2016-07-03T00:27:28.753Z,967.22
2016-07-03T00:28:28.764Z,967.23
2016-07-03T00:29:28.783Z,967.19
2016-07-03T00:30:28.784Z,967.19
2016-07-03T00:31:28.793Z,967.19
2016-07-03T00:32:28.814Z,967.18
2016-07-03T00:33:28.820Z,967.21
2016-07-03T00:34:28.829Z,967.21
2016-07-03T00:35:28.836Z,967.15
2016-07-03T00:36:28.842Z,967.2
2016-07-03T00:37:28.856Z,967.21
2016-07-03T00:38:28.857Z,967.19
2016-07-03T00:39:28.874Z,967.21
2016-07-03T00:40:28.876Z,967.21
2016-07-03T00:41:28.888Z,967.2
2016-07-03T00:42:28.899Z,967.16
2016-07-03T00:43:28.901Z,967.2
2016-07-03T00:44:28.911Z,967.2
2016-07-03T00:45:28.922Z,967.23
2016-07-03T00:46:28.928Z,967.26
2016-07-03T00:47:28.938Z,967.25
2016-07-03T00:48:28.954Z,967.26
2016-07-03T00:49:28.963Z,967.25
2016-07-03T00:50:28.966Z,967.21
2016-07-03T00:51:28.977Z,967.2
2016-07-03T00:52:28.990Z,967.2
2016-07-03T00:53:28.992Z,967.21
2016-07-03T00:54:29.002Z,967.22
2016-07-03T00:55:29.019Z,967.19
2016-07-03T00:56:29.021Z,967.18
2016-07-03T00:57:29.026Z,967.16
2016-07-03T00:58:29.038Z,967.2
2016-07-03T00:59:29.051Z,967.16
2016-07-03T01:00:29.053Z,967.16
2016-07-03T01:01:29.066Z,967.18
2016-07-03T01:02:29.072Z,967.13
2016-07-03T01:03:29.083Z,967.13
2016-07-03T01:04:29.088Z,967.11
2016-07-03T01:05:29.099Z,967.12
2016-07-03T01:06:29.114Z,967.05
2016-07-03T01:07:29.114Z,967.02
2016-07-03T01:08:29.132Z,967.02
2016-07-03T01:09:29.135Z,967.04
2016-07-03T01:10:29.142Z,966.97
2016-07-03T01:11:29.156Z,966.98
2016-07-03T01:12:29.167Z,966.96
2016-07-03T01:13:29.173Z,966.99
2016-07-03T01:14:29.178Z,967
2016-07-03T01:15:29.184Z,967.02
2016-07-03T01:16:29.203Z,967
2016-07-03T01:17:29.214Z,967.03
2016-07-03T01:18:29.212Z,967.02
2016-07-03T01:19:29.220Z,967.04
2016-07-03T01:20:29.232Z,967.07
2016-07-03T01:21:29.251Z,967.07
2016-07-03T01:22:29.256Z,967.1
2016-07-03T01:23:29.265Z,967.11
2016-07-03T01:24:29.275Z,967.1
2016-07-03T01:25:29.276Z,967.12
2016-07-03T01:26:29.292Z,967.07
2016-07-03T01:27:29.301Z,967.1
2016-07-03T01:28:29.303Z,967.08
2016-07-03T01:29:29.311Z,967.14
2016-07-03T01:30:29.327Z,967.13
2016-07-03T01:31:29.326Z,967.07
2016-07-03T01:32:29.338Z,967.12
2016-07-03T01:33:29.351Z,967.08
2016-07-03T01:34:29.360Z,967.12
2016-07-03T01:35:29.362Z,967.1
2016-07-03T01:36:29.368Z,967.1
2016-07-03T01:37:29.385Z,967.1
2016-07-03T01:38:29.394Z,967.07
2016-07-03T01:39:29.402Z,967.08
2016-07-03T01:40:29.407Z,967.04
2016-07-03T01:41:29.415Z,967.11
2016-07-03T01:42:29.433Z,967.08
2016-07-03T01:43:29.441Z,967.07
2016-07-03T01:44:29.441Z,967.05
2016-07-03T01:45:29.459Z,967.05
2016-07-03T01:46:29.458Z,967.07
2016-07-03T01:47:29.474Z,967.06
2016-07-03T01:48:29.483Z,967.06
2016-07-03T01:49:29.486Z,967.04
2016-07-03T01:50:29.501Z,967.09
2016-07-03T01:51:29.507Z,967.06
2016-07-03T01:52:29.509Z,967.04
2016-07-03T01:53:29.527Z,967.05
2016-07-03T01:54:29.530Z,967.03
2016-07-03T01:55:29.541Z,967.1
2016-07-03T01:56:29.546Z,967.07
2016-07-03T01:57:29.557Z,967.12
2016-07-03T01:58:29.560Z,967.1
2016-07-03T01:59:29.572Z,967.1
2016-07-03T02:00:29.591Z,967.13
2016-07-03T02:01:29.593Z,967.13
2016-07-03T02:02:29.608Z,967.16
2016-07-03T02:03:29.617Z,967.18
2016-07-03T02:04:29.617Z,967.24
2016-07-03T02:05:29.631Z,967.19
2016-07-03T02:06:29.633Z,967.2
2016-07-03T02:07:29.651Z,967.19
2016-07-03T02:08:29.655Z,967.18
2016-07-03T02:09:29.659Z,967.23
2016-07-03T02:10:29.668Z,967.21
2016-07-03T02:11:29.680Z,967.16
2016-07-03T02:12:29.690Z,967.2
2016-07-03T02:13:29.696Z,967.2
2016-07-03T02:14:29.712Z,967.18
2016-07-03T02:15:29.720Z,967.14
2016-07-03T02:16:29.731Z,967.13
2016-07-03T02:17:29.738Z,967.17
2016-07-03T02:18:29.748Z,967.19
2016-07-03T02:19:29.756Z,967.19
2016-07-03T02:20:29.756Z,967.25
2016-07-03T02:21:29.767Z,967.3
2016-07-03T02:22:29.783Z,967.25
2016-07-03T02:23:29.783Z,967.26
2016-07-03T02:24:29.797Z,967.26
2016-07-03T02:25:29.801Z,967.26
2016-07-03T02:26:29.820Z,967.22
2016-07-03T02:27:29.825Z,967.23
2016-07-03T02:28:29.836Z,967.2
2016-07-03T02:29:29.844Z,967.19
2016-07-03T02:30:29.847Z,967.13
2016-07-03T02:31:29.854Z,967.12
2016-07-03T02:32:29.864Z,967.11
2016-07-03T02:33:29.877Z,967.06
2016-07-03T02:34:29.880Z,967.05
2016-07-03T02:35:29.894Z,967.05
2016-07-03T02:36:29.897Z,967.05
2016-07-03T02:37:29.912Z,967.07
2016-07-03T02:38:29.915Z,967.05
2016-07-03T02:39:29.930Z,967.12
2016-07-03T02:40:29.938Z,967.12
2016-07-03T02:41:29.948Z,967.12
2016-07-03T02:42:29.950Z,967.07
2016-07-03T02:43:29.960Z,967.05
2016-07-03T02:44:29.970Z,967.05
2016-07-03T02:45:29.982Z,967.05
2016-07-03T02:46:29.992Z,967.02
2016-07-03T02:47:29.994Z,967.04
2016-07-03T02:48:30.003Z,967.03
2016-07-03T02:49:30.020Z,967.08
2016-07-03T02:50:30.022Z,967.05
2016-07-03T02:51:30.038Z,967.08
2016-07-03T02:52:30.038Z,967.13
2016-07-03T02:53:30.054Z,967.13
2016-07-03T02:54:30.056Z,967.15
2016-07-03T02:55:30.071Z,967.18
2016-07-03T02:56:30.073Z,967.21
2016-07-03T02:57:30.081Z,967.17
2016-07-03T02:58:30.089Z,967.15
2016-07-03T02:59:30.103Z,967.17
2016-07-03T03:00:30.118Z,967.15
2016-07-03T03:01:30.116Z,967.22
2016-07-03T03:02:30.126Z,967.21
2016-07-03T03:03:30.143Z,967.23
2016-07-03T03:04:30.142Z,967.2
2016-07-03T03:05:30.151Z,967.21
2016-07-03T03:06:30.167Z,967.2
2016-07-03T03:07:30.166Z,967.2
2016-07-03T03:08:30.182Z,967.16
2016-07-03T03:09:30.186Z,967.15
2016-07-03T03:10:30.195Z,967.14
2016-07-03T03:11:30.204Z,967.15
2016-07-03T03:12:30.214Z,967.16
2016-07-03T03:13:30.222Z,967.15
2016-07-03T03:14:30.236Z,967.14
2016-07-03T03:15:30.245Z,967.17
2016-07-03T03:16:30.247Z,967.13
2016-07-03T03:17:30.257Z,967.13
2016-07-03T03:18:30.266Z,967.13
2016-07-03T03:19:30.274Z,967.12
2016-07-03T03:20:30.284Z,967.12
2016-07-03T03:21:30.290Z,967.16
2016-07-03T03:22:30.300Z,967.15
2016-07-03T03:23:30.309Z,967.16
2016-07-03T03:24:30.322Z,967.18
2016-07-03T03:25:30.333Z,967.22
2016-07-03T03:26:30.333Z,967.19
2016-07-03T03:27:30.346Z,967.23
2016-07-03T03:28:30.359Z,967.23
2016-07-03T03:29:30.366Z,967.24
2016-07-03T03:30:30.368Z,967.29
2016-07-03T03:31:30.377Z,967.28
2016-07-03T03:32:30.385Z,967.28
2016-07-03T03:33:30.403Z,967.3
2016-07-03T03:34:30.403Z,967.29
2016-07-03T03:35:30.412Z,967.33
2016-07-03T03:36:30.417Z,967.35
2016-07-03T03:37:30.437Z,967.35
2016-07-03T03:38:30.443Z,967.37
2016-07-03T03:39:30.450Z,967.35
2016-07-03T03:40:30.455Z,967.34
2016-07-03T03:41:30.466Z,967.35
2016-07-03T03:42:30.471Z,967.32
2016-07-03T03:43:30.487Z,967.28
2016-07-03T03:44:30.487Z,967.26
2016-07-03T03:45:30.503Z,967.28
2016-07-03T03:46:30.515Z,967.28
2016-07-03T03:47:30.526Z,967.28
2016-07-03T03:48:30.530Z,967.26
2016-07-03T03:49:30.541Z,967.22
2016-07-03T03:50:30.547Z,967.22
2016-07-03T03:51:30.551Z,967.18
2016-07-03T03:52:30.564Z,967.1
2016-07-03T03:53:30.566Z,967.11
2016-07-03T03:54:30.584Z,967.11
2016-07-03T03:55:30.585Z,967.14
2016-07-03T03:56:30.599Z,967.22
2016-07-03T03:57:30.610Z,967.16
2016-07-03T03:58:30.619Z,967.17
2016-07-03T03:59:30.620Z,967.17
2016-07-03T04:00:30.627Z,967.22
2016-07-03T04:01:30.644Z,967.24
2016-07-03T04:02:30.645Z,967.25
2016-07-03T04:03:30.653Z,967.23
2016-07-03T04:04:30.663Z,967.25
2016-07-03T04:05:30.677Z,967.23
2016-07-03T04:06:30.686Z,967.26
2016-07-03T04:07:30.693Z,967.25
2016-07-03T04:08:30.701Z,967.24
2016-07-03T04:09:30.705Z,967.21
2016-07-03T04:10:30.718Z,967.19
2016-07-03T04:11:30.729Z,967.15
2016-07-03T04:12:30.737Z,967.18
2016-07-03T04:13:30.744Z,967.2
2016-07-03T04:14:30.754Z,967.2
2016-07-03T04:15:30.759Z,967.2
2016-07-03T04:16:30.773Z,967.23
2016-07-03T04:17:30.777Z,967.23
2016-07-03T04:18:30.779Z,967.22
2016-07-03T04:19:30.799Z,967.2
2016-07-03T04:20:30.812Z,967.2
2016-07-03T04:21:30.813Z,967.2
2016-07-03T04:22:30.817Z,967.22
2016-07-03T04:23:30.827Z,967.26
2016-07-03T04:24:30.835Z,967.28
2016-07-03T04:25:30.848Z,967.29
2016-07-03T04:26:30.853Z,967.3
2016-07-03T04:27:30.871Z,967.26
2016-07-03T04:28:30.870Z,967.22
2016-07-03T04:29:30.887Z,967.25
2016-07-03T04:30:30.891Z,967.27
2016-07-03T04:31:30.895Z,967.34
2016-07-03T04:32:30.904Z,967.34
2016-07-03T04:33:30.913Z,967.39
2016-07-03T04:34:30.932Z,967.39
2016-07-03T04:35:30.932Z,967.37
2016-07-03T04:36:30.946Z,967.39
2016-07-03T04:37:30.956Z,967.42
2016-07-03T04:38:30.958Z,967.42
2016-07-03T04:39:30.969Z,967.44
2016-07-03T04:40:30.982Z,967.39
2016-07-03T04:41:30.995Z,967.35
2016-07-03T04:42:31.001Z,967.34
2016-07-03T04:43:31.010Z,967.33
2016-07-03T04:44:31.019Z,967.32
2016-07-03T04:45:31.030Z,967.31
2016-07-03T04:46:31.026Z,967.36
2016-07-03T04:47:31.041Z,967.35
2016-07-03T04:48:31.054Z,967.4
2016-07-03T04:49:31.056Z,967.36
2016-07-03T04:50:31.064Z,967.38
2016-07-03T04:51:31.080Z,967.35
2016-07-03T04:52:31.081Z,967.28
2016-07-03T04:53:31.096Z,967.27
2016-07-03T04:54:31.099Z,967.29
2016-07-03T04:55:31.112Z,967.24
2016-07-03T04:56:31.115Z,967.28
2016-07-03T04:57:31.121Z,967.27
2016-07-03T04:58:31.133Z,967.25
2016-07-03T04:59:31.146Z,967.26
2016-07-03T05:00:31.151Z,967.33
2016-07-03T05:01:31.166Z,967.31
2016-07-03T05:02:31.168Z,967.35
2016-07-03T05:03:31.177Z,967.32
2016-07-03T05:04:31.194Z,967.28
2016-07-03T05:05:31.199Z,967.29
2016-07-03T05:06:31.206Z,967.28
2016-07-03T05:07:31.209Z,967.3
2016-07-03T05:08:31.223Z,967.32
2016-07-03T05:09:31.225Z,967.36
2016-07-03T05:10:31.250Z,967.35
2016-07-03T05:11:31.256Z,967.37
2016-07-03T05:12:31.251Z,967.37
2016-07-03T05:13:31.261Z,967.39
2016-07-03T05:14:31.272Z,967.41
2016-07-03T05:15:31.277Z,967.43
2016-07-03T05:16:31.297Z,967.44
2016-07-03T05:17:31.297Z,967.44
2016-07-03T05:18:31.319Z,967.46
2016-07-03T05:19:31.326Z,967.44
2016-07-03T05:20:31.333Z,967.44
2016-07-03T05:21:31.341Z,967.41
2016-07-03T05:22:31.377Z,967.48
2016-07-03T05:23:31.363Z,967.45
2016-07-03T05:24:31.367Z,967.44
2016-07-03T05:25:31.385Z,967.45
2016-07-03T05:26:31.386Z,967.47
2016-07-03T05:27:31.385Z,967.46
2016-07-03T05:28:31.399Z,967.5
2016-07-03T05:29:31.418Z,967.5
2016-07-03T05:30:31.409Z,967.54
2016-07-03T05:31:31.425Z,967.51
2016-07-03T05:32:31.428Z,967.52
2016-07-03T05:33:31.441Z,967.59
2016-07-03T05:34:31.466Z,967.58
2016-07-03T05:35:31.459Z,967.58
2016-07-03T05:36:31.474Z,967.59
2016-07-03T05:37:31.478Z,967.56
2016-07-03T05:38:31.488Z,967.58
2016-07-03T05:39:31.496Z,967.58
2016-07-03T05:40:31.503Z,967.61
2016-07-03T05:41:31.518Z,967.59
2016-07-03T05:42:31.533Z,967.58
2016-07-03T05:43:31.538Z,967.6
2016-07-03T05:44:31.536Z,967.59
2016-07-03T05:45:31.551Z,967.56
2016-07-03T05:46:31.560Z,967.55
2016-07-03T05:47:31.561Z,967.54
2016-07-03T05:48:31.591Z,967.6
2016-07-03T05:49:31.580Z,967.6
2016-07-03T05:50:31.588Z,967.6
2016-07-03T05:51:31.600Z,967.61
2016-07-03T05:52:31.607Z,967.65
2016-07-03T05:53:31.614Z,967.64
2016-07-03T05:54:31.633Z,967.68
2016-07-03T05:55:31.632Z,967.7
2016-07-03T05:56:31.651Z,967.73
2016-07-03T05:57:31.664Z,967.72
2016-07-03T05:58:31.671Z,967.73
2016-07-03T05:59:31.671Z,967.71
2016-07-03T06:00:31.686Z,967.72
2016-07-03T06:01:31.699Z,967.74
2016-07-03T06:02:31.719Z,967.76
2016-07-03T06:03:31.704Z,967.76
2016-07-03T06:04:31.716Z,967.72
2016-07-03T06:05:31.774Z,967.78
2016-07-03T06:06:31.743Z,967.79
2016-07-03T06:07:31.752Z,967.79
2016-07-03T06:08:31.760Z,967.78
2016-07-03T06:09:31.759Z,967.76
2016-07-03T06:10:31.770Z,967.74
2016-07-03T06:11:31.786Z,967.74
2016-07-03T06:12:31.796Z,967.7
2016-07-03T06:13:31.797Z,967.77
2016-07-03T06:14:31.820Z,967.71
2016-07-03T06:15:31.816Z,967.73
2016-07-03T06:16:31.824Z,967.68
2016-07-03T06:17:31.845Z,967.71
2016-07-03T06:18:31.844Z,967.73
2016-07-03T06:19:31.849Z,967.73
2016-07-03T06:20:31.866Z,967.75
2016-07-03T06:21:31.868Z,967.76
2016-07-03T06:22:31.883Z,967.74
2016-07-03T06:23:31.895Z,967.75
2016-07-03T06:24:31.897Z,967.75
2016-07-03T06:25:31.910Z,967.78
2016-07-03T06:26:31.914Z,967.77
2016-07-03T06:27:31.933Z,967.76
2016-07-03T06:28:31.932Z,967.81
2016-07-03T06:29:31.949Z,967.77
2016-07-03T06:30:31.959Z,967.79
2016-07-03T06:31:31.960Z,967.78
2016-07-03T06:32:31.967Z,967.77
2016-07-03T06:33:31.986Z,967.76
2016-07-03T06:34:31.986Z,967.75
2016-07-03T06:35:31.996Z,967.75
2016-07-03T06:36:32.009Z,967.74
2016-07-03T06:37:32.022Z,967.7
2016-07-03T06:38:32.022Z,967.72
2016-07-03T06:39:32.039Z,967.72
2016-07-03T06:40:32.046Z,967.72
2016-07-03T06:41:32.049Z,967.68
2016-07-03T06:42:32.063Z,967.69
2016-07-03T06:43:32.071Z,967.69
2016-07-03T06:44:32.071Z,967.69
2016-07-03T06:45:32.083Z,967.68
2016-07-03T06:46:32.097Z,967.71
2016-07-03T06:47:32.104Z,967.7
2016-07-03T06:48:32.110Z,967.72
2016-07-03T06:49:32.124Z,967.69
2016-07-03T06:50:32.129Z,967.68
2016-07-03T06:51:32.133Z,967.68
2016-07-03T06:52:32.144Z,967.68
2016-07-03T06:53:32.160Z,967.64
2016-07-03T06:54:32.169Z,967.64
2016-07-03T06:55:32.171Z,967.6
2016-07-03T06:56:32.183Z,967.67
2016-07-03T06:57:32.196Z,967.62
2016-07-03T06:58:32.198Z,967.67
2016-07-03T06:59:32.211Z,967.63
2016-07-03T07:00:32.215Z,967.61
2016-07-03T07:01:32.232Z,967.6
2016-07-03T07:02:32.233Z,967.61
2016-07-03T07:03:32.250Z,967.62
2016-07-03T07:04:32.257Z,967.63
2016-07-03T07:05:32.269Z,967.63
2016-07-03T07:06:32.269Z,967.66
2016-07-03T07:07:32.287Z,967.69
2016-07-03T07:08:32.289Z,967.69
2016-07-03T07:09:32.301Z,967.7
2016-07-03T07:10:32.303Z,967.7
2016-07-03T07:11:32.321Z,967.73
2016-07-03T07:12:32.331Z,967.72
2016-07-03T07:13:32.334Z,967.75
2016-07-03T07:14:32.348Z,967.75
2016-07-03T07:15:32.354Z,967.74
2016-07-03T07:16:32.358Z,967.75
2016-07-03T07:17:32.373Z,967.75
2016-07-03T07:18:32.375Z,967.73
2016-07-03T07:19:32.397Z,967.75
2016-07-03T07:20:32.403Z,967.77
2016-07-03T07:21:32.411Z,967.76
2016-07-03T07:22:32.414Z,967.75
2016-07-03T07:23:32.432Z,967.75
2016-07-03T07:24:32.441Z,967.72
2016-07-03T07:25:32.448Z,967.75
2016-07-03T07:26:32.448Z,967.75
2016-07-03T07:27:32.472Z,967.76
2016-07-03T07:28:32.470Z,967.73
2016-07-03T07:29:32.478Z,967.72
2016-07-03T07:30:32.486Z,967.74
2016-07-03T07:31:32.500Z,967.71
2016-07-03T07:32:32.504Z,967.7
2016-07-03T07:33:32.511Z,967.72
2016-07-03T07:34:32.529Z,967.72
2016-07-03T07:35:32.538Z,967.7
2016-07-03T07:36:32.539Z,967.68
2016-07-03T07:37:32.555Z,967.68
2016-07-03T07:38:32.552Z,967.64
2016-07-03T07:39:32.563Z,967.64
2016-07-03T07:40:32.575Z,967.62
2016-07-03T07:41:32.583Z,967.63
2016-07-03T07:42:32.593Z,967.63
2016-07-03T07:43:32.608Z,967.69
2016-07-03T07:44:32.613Z,967.68
2016-07-03T07:45:32.628Z,967.7
2016-07-03T07:46:32.628Z,967.73
2016-07-03T07:47:32.645Z,967.72
2016-07-03T07:48:32.656Z,967.77
2016-07-03T07:49:32.663Z,967.74
2016-07-03T07:50:32.674Z,967.76
2016-07-03T07:51:32.672Z,967.76
2016-07-03T07:52:32.685Z,967.74
2016-07-03T07:53:32.702Z,967.8
2016-07-03T07:54:32.713Z,967.8
2016-07-03T07:55:32.718Z,967.81
2016-07-03T07:56:32.727Z,967.78
2016-07-03T07:57:32.731Z,967.79
2016-07-03T07:58:32.739Z,967.8
2016-07-03T07:59:32.747Z,967.83
2016-07-03T08:00:32.758Z,967.81
2016-07-03T08:01:32.769Z,967.86
2016-07-03T08:02:32.779Z,967.82
2016-07-03T08:03:32.790Z,967.85
2016-07-03T08:04:32.789Z,967.85
2016-07-03T08:05:32.802Z,967.78
2016-07-03T08:06:32.818Z,967.81
2016-07-03T08:07:32.829Z,967.81
2016-07-03T08:08:32.838Z,967.81
2016-07-03T08:09:32.847Z,967.79
2016-07-03T08:10:32.846Z,967.78
2016-07-03T08:11:32.856Z,967.78
2016-07-03T08:12:32.871Z,967.72
2016-07-03T08:13:32.873Z,967.77
2016-07-03T08:14:32.883Z,967.75
2016-07-03T08:15:32.898Z,967.73
2016-07-03T08:16:32.907Z,967.76
2016-07-03T08:17:32.910Z,967.75
2016-07-03T08:18:32.917Z,967.8
2016-07-03T08:19:32.933Z,967.79
2016-07-03T08:20:32.947Z,967.78
2016-07-03T08:21:32.947Z,967.76
2016-07-03T08:22:32.955Z,967.75
2016-07-03T08:23:32.973Z,967.79
2016-07-03T08:24:32.984Z,967.79
2016-07-03T08:25:32.984Z,967.78
2016-07-03T08:26:32.993Z,967.79
2016-07-03T08:27:33.008Z,967.8
2016-07-03T08:28:33.018Z,967.82
2016-07-03T08:29:33.025Z,967.84
2016-07-03T08:30:33.033Z,967.78
2016-07-03T08:31:33.046Z,967.78
2016-07-03T08:32:33.053Z,967.78
2016-07-03T08:33:33.065Z,967.82
2016-07-03T08:34:33.075Z,967.84
2016-07-03T08:35:33.077Z,967.82
2016-07-03T08:36:33.089Z,967.81
2016-07-03T08:37:33.101Z,967.83
2016-07-03T08:38:33.109Z,967.82
2016-07-03T08:39:33.120Z,967.82
2016-07-03T08:40:33.120Z,967.83
2016-07-03T08:41:33.134Z,967.8
2016-07-03T08:42:33.147Z,967.84
2016-07-03T08:43:33.158Z,967.81
2016-07-03T08:44:33.157Z,967.81
2016-07-03T08:45:33.179Z,967.79
2016-07-03T08:46:33.176Z,967.8
2016-07-03T08:47:33.185Z,967.86
2016-07-03T08:48:33.195Z,967.83
2016-07-03T08:49:33.208Z,967.87
2016-07-03T08:50:33.215Z,967.88
2016-07-03T08:51:33.243Z,967.84
2016-07-03T08:52:33.230Z,967.85
2016-07-03T08:53:33.248Z,967.84
2016-07-03T08:54:33.255Z,967.86
2016-07-03T08:55:33.259Z,967.84
2016-07-03T08:56:33.267Z,967.84
2016-07-03T08:57:33.270Z,967.82
2016-07-03T08:58:33.281Z,967.8
2016-07-03T08:59:33.295Z,967.83
2016-07-03T09:00:33.301Z,967.83
2016-07-03T09:01:33.325Z,967.78
2016-07-03T09:02:33.325Z,967.8
2016-07-03T09:03:33.340Z,967.83
2016-07-03T09:04:33.344Z,967.84
2016-07-03T09:05:33.346Z,967.81
2016-07-03T09:06:33.362Z,967.82
2016-07-03T09:07:33.373Z,967.83
2016-07-03T09:08:33.379Z,967.79
2016-07-03T09:09:33.384Z,967.83
2016-07-03T09:10:33.400Z,967.82
2016-07-03T09:11:33.410Z,967.86
2016-07-03T09:12:33.415Z,967.83
2016-07-03T09:13:33.416Z,967.78
2016-07-03T09:14:33.431Z,967.81
2016-07-03T09:15:33.446Z,967.77
2016-07-03T09:16:33.460Z,967.78
2016-07-03T09:17:33.465Z,967.76
2016-07-03T09:18:33.463Z,967.72
2016-07-03T09:19:33.480Z,967.72
2016-07-03T09:20:33.484Z,967.7
2016-07-03T09:21:33.501Z,967.75
2016-07-03T09:22:33.507Z,967.75
2016-07-03T09:23:33.518Z,967.72
2016-07-03T09:24:33.525Z,967.76
2016-07-03T09:25:33.531Z,967.76
2016-07-03T09:26:33.538Z,967.74
2016-07-03T09:27:33.552Z,967.74
2016-07-03T09:28:33.568Z,967.75
2016-07-03T09:29:33.567Z,967.76
2016-07-03T09:30:33.576Z,967.72
2016-07-03T09:31:33.593Z,967.74
2016-07-03T09:32:33.593Z,967.73
2016-07-03T09:33:33.608Z,967.72
2016-07-03T09:34:33.619Z,967.72
2016-07-03T09:35:33.625Z,967.71
2016-07-03T09:36:33.637Z,967.69
2016-07-03T09:37:33.648Z,967.68
2016-07-03T09:38:33.656Z,967.67
2016-07-03T09:39:33.664Z,967.68
2016-07-03T09:40:33.675Z,967.7
2016-07-03T09:41:33.688Z,967.69
2016-07-03T09:42:33.692Z,967.71
2016-07-03T09:43:33.702Z,967.71
2016-07-03T09:44:33.704Z,967.72
2016-07-03T09:45:33.714Z,967.72
2016-07-03T09:46:33.731Z,967.76
2016-07-03T09:47:33.738Z,967.78
2016-07-03T09:48:33.740Z,967.8
2016-07-03T09:49:33.757Z,967.82
2016-07-03T09:50:33.762Z,967.8
2016-07-03T09:51:33.772Z,967.77
2016-07-03T09:52:33.781Z,967.72
2016-07-03T09:53:33.787Z,967.75
2016-07-03T09:54:33.800Z,967.77
2016-07-03T09:55:33.812Z,967.71
2016-07-03T09:56:33.813Z,967.71
2016-07-03T09:57:33.831Z,967.67
2016-07-03T09:58:33.835Z,967.67
2016-07-03T09:59:33.849Z,967.64
2016-07-03T10:00:33.851Z,967.63
2016-07-03T10:01:33.867Z,967.6
2016-07-03T10:02:33.872Z,967.64
2016-07-03T10:03:33.879Z,967.63
2016-07-03T10:04:33.895Z,967.65
2016-07-03T10:05:33.898Z,967.69
2016-07-03T10:06:33.911Z,967.66
2016-07-03T10:07:33.925Z,967.66
2016-07-03T10:08:33.926Z,967.66
2016-07-03T10:09:33.934Z,967.69
2016-07-03T10:10:33.945Z,967.68
2016-07-03T10:11:33.976Z,967.65
2016-07-03T10:12:33.960Z,967.65
2016-07-03T10:13:33.972Z,967.69
2016-07-03T10:14:33.986Z,967.67
2016-07-03T10:15:33.984Z,967.65
2016-07-03T10:16:33.997Z,967.64
2016-07-03T10:17:34.013Z,967.63
2016-07-03T10:18:34.023Z,967.62
2016-07-03T10:19:34.027Z,967.56
2016-07-03T10:20:34.038Z,967.57
2016-07-03T10:21:34.050Z,967.61
2016-07-03T10:22:34.059Z,967.58
2016-07-03T10:23:34.073Z,967.55
2016-07-03T10:24:34.073Z,967.55
2016-07-03T10:25:34.083Z,967.5
2016-07-03T10:26:34.093Z,967.49
2016-07-03T10:27:34.098Z,967.49
2016-07-03T10:28:34.114Z,967.47
2016-07-03T10:29:34.122Z,967.44
2016-07-03T10:30:34.127Z,967.4
2016-07-03T10:31:34.139Z,967.4
2016-07-03T10:32:34.148Z,967.43
2016-07-03T10:33:34.159Z,967.4
2016-07-03T10:34:34.172Z,967.39
2016-07-03T10:35:34.175Z,967.36
2016-07-03T10:36:34.183Z,967.34
2016-07-03T10:37:34.196Z,967.29
2016-07-03T10:38:34.205Z,967.31
2016-07-03T10:39:34.208Z,967.29
2016-07-03T10:40:34.216Z,967.29
2016-07-03T10:41:34.234Z,967.27
2016-07-03T10:42:34.236Z,967.27
2016-07-03T10:43:34.244Z,967.28
2016-07-03T10:44:34.255Z,967.27
2016-07-03T10:45:34.258Z,967.25
2016-07-03T10:46:34.271Z,967.23
2016-07-03T10:47:34.285Z,967.24
2016-07-03T10:48:34.295Z,967.2
2016-07-03T10:49:34.298Z,967.21
2016-07-03T10:50:34.309Z,967.21
2016-07-03T10:51:34.321Z,967.2
2016-07-03T10:52:34.324Z,967.17
2016-07-03T10:53:34.330Z,967.16
2016-07-03T10:54:34.348Z,967.17
2016-07-03T10:55:34.351Z,967.17
2016-07-03T10:56:34.361Z,967.14
2016-07-03T10:57:34.379Z,967.1
2016-07-03T10:58:34.391Z,967.09
2016-07-03T10:59:34.398Z,967.07
2016-07-03T11:00:34.397Z,967.06
2016-07-03T11:01:34.410Z,967.04
2016-07-03T11:02:34.420Z,967.05
2016-07-03T11:03:34.432Z,967.03
2016-07-03T11:04:34.432Z,967.04
2016-07-03T11:05:34.451Z,967.03
2016-07-03T11:06:34.457Z,967.01
2016-07-03T11:07:34.465Z,967.04
2016-07-03T11:08:34.474Z,966.98
2016-07-03T11:09:34.488Z,967
2016-07-03T11:10:34.489Z,966.98
2016-07-03T11:11:34.497Z,966.96
2016-07-03T11:12:34.516Z,966.95
2016-07-03T11:13:34.521Z,966.93
2016-07-03T11:14:34.534Z,966.95
2016-07-03T11:15:34.537Z,966.89
2016-07-03T11:16:34.549Z,966.94
2016-07-03T11:17:34.563Z,966.94
2016-07-03T11:18:34.568Z,966.93
2016-07-03T11:19:34.575Z,966.94
2016-07-03T11:20:34.587Z,966.92
2016-07-03T11:21:34.594Z,966.93
2016-07-03T11:22:34.602Z,966.89
2016-07-03T11:23:34.609Z,966.9
2016-07-03T11:24:34.625Z,966.89
2016-07-03T11:25:34.635Z,966.86
2016-07-03T11:26:34.645Z,966.88
2016-07-03T11:27:34.659Z,966.89
2016-07-03T11:28:34.667Z,966.85
2016-07-03T11:29:34.668Z,966.83
2016-07-03T11:30:34.685Z,966.88
2016-07-03T11:31:34.690Z,966.91
2016-07-03T11:32:34.703Z,966.88
2016-07-03T11:33:34.711Z,966.87
2016-07-03T11:34:34.719Z,966.89
2016-07-03T11:35:34.722Z,966.87
2016-07-03T11:36:34.742Z,966.87
2016-07-03T11:37:34.744Z,966.87
2016-07-03T11:38:34.759Z,966.83
2016-07-03T11:39:34.762Z,966.84
2016-07-03T11:40:34.771Z,966.88
2016-07-03T11:41:34.789Z,966.91
2016-07-03T11:42:34.790Z,966.88
2016-07-03T11:43:34.806Z,966.92
2016-07-03T11:44:34.813Z,966.87
2016-07-03T11:45:34.828Z,966.89
2016-07-03T11:46:34.827Z,966.84
2016-07-03T11:47:34.843Z,966.84
2016-07-03T11:48:34.844Z,966.86
2016-07-03T11:49:34.859Z,966.83
2016-07-03T11:50:34.864Z,966.82
2016-07-03T11:51:34.874Z,966.77
2016-07-03T11:52:34.890Z,966.77
2016-07-03T11:53:34.892Z,966.77
2016-07-03T11:54:34.905Z,966.81
2016-07-03T11:55:34.918Z,966.82
2016-07-03T11:56:34.924Z,966.78
2016-07-03T11:57:34.929Z,966.81
2016-07-03T11:58:34.943Z,966.78
2016-07-03T11:59:34.954Z,966.78
2016-07-03T12:00:34.957Z,966.83
2016-07-03T12:01:34.971Z,966.81
2016-07-03T12:02:34.976Z,966.8
2016-07-03T12:03:34.992Z,966.78
2016-07-03T12:04:34.996Z,966.77
2016-07-03T12:05:35.008Z,966.75
2016-07-03T12:06:35.014Z,966.75
2016-07-03T12:07:35.029Z,966.75
2016-07-03T12:08:35.033Z,966.73
2016-07-03T12:09:35.047Z,966.74
2016-07-03T12:10:35.052Z,966.74
2016-07-03T12:11:35.066Z,966.74
2016-07-03T12:12:35.064Z,966.73
2016-07-03T12:13:35.081Z,966.73
2016-07-03T12:14:35.093Z,966.78
2016-07-03T12:15:35.094Z,966.78
2016-07-03T12:16:35.112Z,966.75
2016-07-03T12:17:35.120Z,966.76
2016-07-03T12:18:35.131Z,966.74
2016-07-03T12:19:35.134Z,966.75
2016-07-03T12:20:35.141Z,966.73
2016-07-03T12:21:35.149Z,966.71
2016-07-03T12:22:35.165Z,966.72
2016-07-03T12:23:35.176Z,966.7
2016-07-03T12:24:35.187Z,966.72
2016-07-03T12:25:35.189Z,966.72
2016-07-03T12:26:35.201Z,966.69
2016-07-03T12:27:35.207Z,966.68
2016-07-03T12:28:35.222Z,966.71
2016-07-03T12:29:35.232Z,966.69
2016-07-03T12:30:35.241Z,966.68
2016-07-03T12:31:35.250Z,966.69